createdAt,value
2022-11-28T00:00:03.107Z,979.07
2022-11-28T00:01:03.055Z,979.01
2022-11-28T00:02:03.152Z,979.01
2022-11-28T00:03:03.334Z,978.90
2022-11-28T00:04:03.258Z,978.96
2022-11-28T00:05:03.054Z,978.90
2022-11-28T00:06:02.987Z,979.04
2022-11-28T00:07:03.197Z,979.01
2022-11-28T00:08:03.935Z,979.04
2022-11-28T00:09:03.743Z,978.93
2022-11-28T00:10:03.746Z,978.96
2022-11-28T00:11:03.657Z,978.93
2022-11-28T00:12:03.563Z,978.93
2022-11-28T00:13:03.547Z,978.96
2022-11-28T00:14:03.602Z,979.01
2022-11-28T00:15:03.526Z,978.98
2022-11-28T00:16:03.795Z,978.87
2022-11-28T00:17:03.595Z,978.95
2022-11-28T00:18:03.521Z,978.98
2022-11-28T00:19:03.529Z,978.93
2022-11-28T00:20:03.461Z,978.96
2022-11-28T00:21:03.573Z,978.70
2022-11-28T00:22:03.570Z,978.84
2022-11-28T00:23:03.458Z,978.81
2022-11-28T00:24:03.427Z,978.76
2022-11-28T00:25:03.334Z,978.95
2022-11-28T00:26:03.381Z,978.90
2022-11-28T00:27:03.400Z,978.90
2022-11-28T00:28:03.396Z,979.09
2022-11-28T00:29:03.317Z,978.98
2022-11-28T00:30:03.238Z,978.81
2022-11-28T00:31:03.177Z,978.90
2022-11-28T00:32:03.315Z,978.76
2022-11-28T00:33:03.182Z,978.79
2022-11-28T00:34:03.165Z,978.70
2022-11-28T00:35:03.125Z,978.90
2022-11-28T00:36:03.135Z,978.73
2022-11-28T00:37:03.168Z,978.81
2022-11-28T00:38:03.064Z,978.65
2022-11-28T00:39:03.195Z,978.76
2022-11-28T00:40:03.051Z,978.90
2022-11-28T00:41:03.150Z,978.59
2022-11-28T00:42:03.219Z,978.70
2022-11-28T00:43:03.163Z,978.70
2022-11-28T00:44:03.108Z,978.84
2022-11-28T00:45:03.183Z,978.62
2022-11-28T00:46:03.355Z,978.73
2022-11-28T00:47:03.217Z,978.76
2022-11-28T00:48:03.106Z,978.81
2022-11-28T00:49:03.085Z,978.67
2022-11-28T00:50:03.223Z,978.64
2022-11-28T00:51:03.159Z,978.67
2022-11-28T00:52:03.184Z,978.64
2022-11-28T00:53:03.116Z,978.70
2022-11-28T00:54:03.099Z,978.70
2022-11-28T00:55:03.100Z,978.73
2022-11-28T00:56:02.980Z,978.67
2022-11-28T00:57:02.995Z,978.67
2022-11-28T00:58:02.972Z,978.70
2022-11-28T00:59:02.971Z,978.62
2022-11-28T01:00:03.042Z,978.70
2022-11-28T01:01:03.005Z,978.70
2022-11-28T01:02:03.114Z,978.61
2022-11-28T01:03:02.896Z,978.67
2022-11-28T01:04:02.966Z,978.64
2022-11-28T01:05:02.962Z,978.64
2022-11-28T01:06:02.852Z,978.73
2022-11-28T01:07:02.909Z,978.67
2022-11-28T01:08:03.015Z,978.56
2022-11-28T01:09:03.118Z,978.40
2022-11-28T01:10:03.513Z,978.53
2022-11-28T01:11:03.211Z,978.53
2022-11-28T01:12:03.240Z,978.47
2022-11-28T01:13:03.251Z,978.50
2022-11-28T01:14:03.293Z,978.43
2022-11-28T01:15:03.184Z,978.47
2022-11-28T01:16:03.330Z,978.43
2022-11-28T01:17:03.303Z,978.32
2022-11-28T01:18:03.073Z,978.43
2022-11-28T01:19:03.037Z,978.26
2022-11-28T01:20:02.963Z,978.31
2022-11-28T01:21:02.929Z,978.43
2022-11-28T01:22:03.901Z,978.26
2022-11-28T01:23:03.841Z,978.20
2022-11-28T01:24:03.820Z,978.12
2022-11-28T01:25:03.695Z,978.20
2022-11-28T01:26:03.796Z,978.29
2022-11-28T01:27:03.787Z,978.40
2022-11-28T01:28:03.659Z,978.29
2022-11-28T01:29:03.593Z,978.23
2022-11-28T01:30:03.520Z,978.23
2022-11-28T01:31:03.682Z,978.03
2022-11-28T01:32:03.612Z,977.95
2022-11-28T01:33:03.442Z,978.23
2022-11-28T01:34:03.417Z,978.06
2022-11-28T01:35:03.456Z,977.98
2022-11-28T01:36:03.511Z,978.14
2022-11-28T01:37:03.469Z,977.95
2022-11-28T01:38:03.423Z,978.00
2022-11-28T01:39:03.565Z,977.95
2022-11-28T01:40:03.480Z,977.95
2022-11-28T01:41:03.470Z,977.83
2022-11-28T01:42:03.450Z,977.86
2022-11-28T01:43:03.481Z,977.80
2022-11-28T01:44:03.483Z,977.83
2022-11-28T01:45:03.476Z,978.00
2022-11-28T01:46:03.391Z,977.81
2022-11-28T01:47:03.453Z,977.81
2022-11-28T01:48:03.481Z,977.92
2022-11-28T01:49:03.551Z,977.94
2022-11-28T01:50:03.504Z,977.83
2022-11-28T01:51:03.570Z,977.92
2022-11-28T01:52:03.674Z,977.83
2022-11-28T01:53:03.767Z,977.80
2022-11-28T01:54:03.655Z,977.72
2022-11-28T01:55:03.511Z,977.69
2022-11-28T01:56:03.544Z,977.75
2022-11-28T01:57:03.136Z,977.72
2022-11-28T01:58:03.820Z,977.53
2022-11-28T01:59:02.928Z,977.77
2022-11-28T02:00:03.004Z,977.53
2022-11-28T02:01:03.053Z,977.75
2022-11-28T02:02:03.058Z,977.61
2022-11-28T02:03:03.102Z,977.53
2022-11-28T02:04:02.976Z,977.66
2022-11-28T02:05:03.392Z,977.59
2022-11-28T02:06:03.336Z,977.66
2022-11-28T02:07:03.203Z,977.53
2022-11-28T02:08:03.272Z,977.72
2022-11-28T02:09:03.183Z,977.61
2022-11-28T02:10:03.123Z,977.69
2022-11-28T02:11:03.179Z,977.77
2022-11-28T02:12:03.299Z,977.80
2022-11-28T02:13:03.383Z,977.75
2022-11-28T02:14:03.368Z,977.72
2022-11-28T02:15:03.320Z,977.77
2022-11-28T02:16:03.562Z,977.77
2022-11-28T02:17:03.421Z,977.59
2022-11-28T02:18:03.457Z,977.77
2022-11-28T02:19:03.379Z,977.77
2022-11-28T02:20:03.402Z,977.66
2022-11-28T02:21:03.506Z,977.69
2022-11-28T02:22:03.369Z,977.75
2022-11-28T02:23:03.436Z,977.80
2022-11-28T02:24:03.486Z,977.77
2022-11-28T02:25:04.052Z,977.69
2022-11-28T02:26:03.685Z,977.77
2022-11-28T02:27:03.523Z,977.77
2022-11-28T02:28:03.367Z,977.83
2022-11-28T02:29:03.301Z,977.83
2022-11-28T02:30:03.408Z,977.69
2022-11-28T02:31:03.324Z,977.89
2022-11-28T02:32:03.255Z,977.66
2022-11-28T02:33:03.383Z,977.72
2022-11-28T02:34:03.203Z,977.66
2022-11-28T02:35:03.332Z,977.69
2022-11-28T02:36:03.236Z,977.72
2022-11-28T02:37:03.148Z,977.47
2022-11-28T02:38:03.134Z,977.58
2022-11-28T02:39:03.138Z,977.47
2022-11-28T02:40:02.992Z,977.44
2022-11-28T02:41:03.100Z,977.44
2022-11-28T02:42:03.139Z,977.44
2022-11-28T02:43:03.247Z,977.39
2022-11-28T02:44:04.936Z,977.30
2022-11-28T02:45:03.071Z,977.42
2022-11-28T02:46:03.052Z,977.16
2022-11-28T02:47:03.236Z,977.13
2022-11-28T02:48:03.045Z,977.19
2022-11-28T02:49:02.924Z,977.22
2022-11-28T02:50:02.858Z,977.05
2022-11-28T02:51:02.992Z,977.13
2022-11-28T02:52:02.918Z,977.19
2022-11-28T02:53:02.952Z,977.08
2022-11-28T02:54:03.777Z,977.30
2022-11-28T02:55:03.805Z,977.10
2022-11-28T02:56:03.820Z,977.13
2022-11-28T02:57:03.743Z,977.19
2022-11-28T02:58:03.739Z,977.10
2022-11-28T02:59:03.761Z,977.05
2022-11-28T03:00:03.780Z,977.33
2022-11-28T03:01:04.039Z,977.21
2022-11-28T03:02:03.874Z,977.27
2022-11-28T03:03:03.805Z,977.24
2022-11-28T03:04:03.845Z,977.16
2022-11-28T03:05:03.771Z,977.10
2022-11-28T03:06:03.756Z,976.93
2022-11-28T03:07:03.759Z,977.07
2022-11-28T03:08:03.857Z,977.10
2022-11-28T03:09:03.762Z,977.04
2022-11-28T03:10:03.789Z,977.10
2022-11-28T03:11:03.716Z,976.99
2022-11-28T03:12:03.659Z,977.13
2022-11-28T03:13:03.677Z,976.99
2022-11-28T03:14:03.785Z,977.07
2022-11-28T03:15:03.631Z,977.10
2022-11-28T03:16:03.695Z,977.13
2022-11-28T03:17:03.591Z,977.10
2022-11-28T03:18:03.534Z,977.01
2022-11-28T03:19:03.606Z,977.21
2022-11-28T03:20:03.717Z,977.04
2022-11-28T03:21:03.556Z,977.01
2022-11-28T03:22:03.579Z,976.96
2022-11-28T03:23:03.494Z,977.13
2022-11-28T03:24:03.521Z,977.07
2022-11-28T03:25:03.446Z,977.01
2022-11-28T03:26:03.393Z,977.10
2022-11-28T03:27:03.489Z,977.21
2022-11-28T03:28:03.551Z,977.23
2022-11-28T03:29:03.517Z,977.21
2022-11-28T03:30:03.512Z,977.21
2022-11-28T03:31:03.488Z,977.21
2022-11-28T03:32:03.335Z,977.29
2022-11-28T03:33:03.438Z,977.26
2022-11-28T03:34:03.433Z,977.35
2022-11-28T03:35:03.445Z,977.15
2022-11-28T03:36:03.472Z,977.15
2022-11-28T03:37:03.382Z,977.18
2022-11-28T03:38:03.427Z,977.18
2022-11-28T03:39:03.410Z,977.26
2022-11-28T03:40:03.373Z,977.21
2022-11-28T03:41:03.461Z,976.95
2022-11-28T03:42:03.411Z,977.07
2022-11-28T03:43:03.526Z,977.09
2022-11-28T03:44:03.566Z,977.04
2022-11-28T03:45:03.625Z,977.09
2022-11-28T03:46:03.641Z,976.98
2022-11-28T03:47:03.800Z,976.98
2022-11-28T03:48:03.634Z,976.78
2022-11-28T03:49:03.702Z,976.75
2022-11-28T03:50:03.639Z,976.90
2022-11-28T03:51:03.695Z,976.81
2022-11-28T03:52:03.705Z,976.78
2022-11-28T03:53:03.660Z,976.78
2022-11-28T03:54:03.696Z,976.89
2022-11-28T03:55:03.665Z,976.78
2022-11-28T03:56:03.770Z,976.75
2022-11-28T03:57:03.492Z,976.75
2022-11-28T03:58:03.464Z,976.74
2022-11-28T03:59:03.466Z,976.78
2022-11-28T04:00:03.392Z,976.62
2022-11-28T04:01:03.537Z,976.65
2022-11-28T04:02:03.561Z,976.62
2022-11-28T04:03:03.652Z,976.46
2022-11-28T04:04:03.489Z,976.60
2022-11-28T04:05:03.385Z,976.74
2022-11-28T04:06:03.431Z,976.57
2022-11-28T04:07:03.472Z,976.62
2022-11-28T04:08:03.569Z,976.57
2022-11-28T04:09:03.416Z,976.60
2022-11-28T04:10:03.500Z,976.71
2022-11-28T04:11:03.521Z,976.71
2022-11-28T04:12:03.411Z,976.65
2022-11-28T04:13:03.491Z,976.60
2022-11-28T04:14:03.554Z,976.74
2022-11-28T04:15:03.559Z,976.71
2022-11-28T04:16:03.763Z,976.75
2022-11-28T04:17:03.742Z,976.65
2022-11-28T04:18:03.556Z,976.68
2022-11-28T04:19:03.556Z,976.60
2022-11-28T04:20:03.785Z,976.62
2022-11-28T04:21:03.846Z,976.51
2022-11-28T04:22:03.760Z,976.54
2022-11-28T04:23:03.865Z,976.54
2022-11-28T04:24:02.876Z,976.54
2022-11-28T04:25:02.905Z,976.60
2022-11-28T04:26:03.860Z,976.51
2022-11-28T04:27:03.938Z,976.60
2022-11-28T04:28:03.819Z,976.51
2022-11-28T04:29:03.926Z,976.51
2022-11-28T04:30:03.961Z,976.37
2022-11-28T04:31:03.763Z,976.60
2022-11-28T04:32:03.275Z,976.46
2022-11-28T04:33:03.012Z,976.43
2022-11-28T04:34:03.170Z,976.57
2022-11-28T04:35:03.149Z,976.46
2022-11-28T04:36:03.084Z,976.49
2022-11-28T04:37:10.060Z,976.43
2022-11-28T04:38:03.000Z,976.48
2022-11-28T04:39:03.102Z,976.35
2022-11-28T04:40:03.060Z,976.43
2022-11-28T04:41:02.932Z,976.46
2022-11-28T04:42:03.071Z,976.54
2022-11-28T04:43:03.026Z,976.60
2022-11-28T04:44:03.033Z,976.54
2022-11-28T04:45:03.124Z,976.52
2022-11-28T04:46:03.099Z,976.46
2022-11-28T04:47:02.991Z,976.54
2022-11-28T04:48:03.315Z,976.40
2022-11-28T04:49:03.271Z,976.52
2022-11-28T04:50:03.330Z,976.54
2022-11-28T04:51:03.311Z,976.43
2022-11-28T04:52:03.480Z,976.52
2022-11-28T04:53:03.368Z,976.57
2022-11-28T04:54:03.404Z,976.68
2022-11-28T04:55:03.326Z,976.60
2022-11-28T04:56:03.261Z,976.66
2022-11-28T04:57:03.250Z,976.54
2022-11-28T04:58:03.189Z,976.66
2022-11-28T04:59:03.521Z,976.66
2022-11-28T05:00:03.703Z,976.68
2022-11-28T05:01:03.793Z,976.57
2022-11-28T05:02:03.784Z,976.71
2022-11-28T05:03:03.683Z,976.57
2022-11-28T05:04:03.548Z,976.68
2022-11-28T05:05:03.598Z,976.71
2022-11-28T05:06:03.593Z,976.60
2022-11-28T05:07:03.573Z,976.60
2022-11-28T05:08:03.687Z,976.60
2022-11-28T05:09:03.606Z,976.40
2022-11-28T05:10:03.572Z,976.46
2022-11-28T05:11:03.517Z,976.52
2022-11-28T05:12:03.574Z,976.46
2022-11-28T05:13:03.491Z,976.43
2022-11-28T05:14:03.515Z,976.52
2022-11-28T05:15:03.553Z,976.54
2022-11-28T05:16:03.833Z,976.49
2022-11-28T05:17:03.556Z,976.52
2022-11-28T05:18:03.591Z,976.43
2022-11-28T05:19:03.480Z,976.46
2022-11-28T05:20:03.590Z,976.43
2022-11-28T05:21:03.507Z,976.41
2022-11-28T05:22:03.645Z,976.43
2022-11-28T05:23:03.598Z,976.43
2022-11-28T05:24:03.686Z,976.38
2022-11-28T05:25:04.846Z,976.43
2022-11-28T05:26:02.912Z,976.35
2022-11-28T05:27:02.949Z,976.29
2022-11-28T05:28:02.930Z,976.41
2022-11-28T05:29:03.809Z,976.52
2022-11-28T05:30:02.952Z,976.32
2022-11-28T05:31:03.897Z,976.38
2022-11-28T05:32:04.105Z,976.35
2022-11-28T05:33:02.956Z,976.38
2022-11-28T05:34:03.092Z,976.13
2022-11-28T05:35:03.250Z,976.41
2022-11-28T05:36:03.129Z,976.35
2022-11-28T05:37:03.255Z,976.40
2022-11-28T05:38:03.221Z,976.32
2022-11-28T05:39:03.175Z,976.32
2022-11-28T05:40:03.257Z,976.26
2022-11-28T05:41:03.177Z,976.29
2022-11-28T05:42:03.328Z,976.35
2022-11-28T05:43:03.220Z,976.26
2022-11-28T05:44:03.141Z,976.18
2022-11-28T05:45:03.131Z,976.15
2022-11-28T05:46:03.198Z,976.10
2022-11-28T05:47:02.952Z,976.13
2022-11-28T05:48:02.949Z,976.21
2022-11-28T05:49:03.033Z,975.96
2022-11-28T05:50:03.099Z,976.15
2022-11-28T05:51:02.991Z,976.10
2022-11-28T05:52:03.003Z,976.01
2022-11-28T05:53:03.209Z,976.04
2022-11-28T05:54:03.226Z,976.01
2022-11-28T05:55:03.150Z,976.13
2022-11-28T05:56:03.281Z,976.24
2022-11-28T05:57:03.296Z,976.18
2022-11-28T05:58:03.196Z,976.41
2022-11-28T05:59:03.276Z,976.30
2022-11-28T06:00:03.209Z,976.29
2022-11-28T06:01:03.116Z,976.32
2022-11-28T06:02:03.336Z,976.32
2022-11-28T06:03:03.049Z,976.24
2022-11-28T06:04:03.097Z,976.26
2022-11-28T06:05:42.026Z,976.26
2022-11-28T06:06:03.170Z,976.26
2022-11-28T06:07:03.079Z,976.21
2022-11-28T06:08:03.267Z,976.29
2022-11-28T06:09:02.984Z,976.26
2022-11-28T06:10:02.933Z,976.18
2022-11-28T06:11:03.014Z,976.23
2022-11-28T06:12:02.960Z,976.29
2022-11-28T06:13:02.979Z,976.32
2022-11-28T06:14:02.846Z,976.23
2022-11-28T06:15:03.804Z,976.26
2022-11-28T06:16:03.126Z,976.43
2022-11-28T06:17:03.888Z,976.37
2022-11-28T06:18:03.046Z,976.43
2022-11-28T06:19:03.341Z,976.54
2022-11-28T06:20:03.077Z,976.62
2022-11-28T06:21:03.246Z,976.34
2022-11-28T06:22:03.196Z,976.57
2022-11-28T06:23:03.112Z,976.45
2022-11-28T06:24:03.142Z,976.40
2022-11-28T06:25:03.180Z,976.40
2022-11-28T06:26:03.062Z,976.48
2022-11-28T06:27:03.117Z,976.51
2022-11-28T06:28:03.092Z,976.40
2022-11-28T06:29:03.139Z,976.48
2022-11-28T06:30:03.233Z,976.37
2022-11-28T06:31:03.165Z,976.43
2022-11-28T06:32:03.218Z,976.48
2022-11-28T06:33:03.128Z,976.43
2022-11-28T06:34:03.268Z,976.37
2022-11-28T06:35:03.162Z,976.49
2022-11-28T06:36:03.287Z,976.34
2022-11-28T06:37:03.262Z,976.34
2022-11-28T06:38:03.240Z,976.40
2022-11-28T06:39:03.146Z,976.46
2022-11-28T06:40:03.200Z,976.29
2022-11-28T06:41:03.163Z,976.29
2022-11-28T06:42:03.193Z,976.23
2022-11-28T06:43:02.965Z,976.32
2022-11-28T06:44:02.986Z,976.21
2022-11-28T06:45:03.022Z,976.29
2022-11-28T06:46:03.146Z,976.23
2022-11-28T06:47:02.889Z,976.29
2022-11-28T06:48:02.956Z,976.21
2022-11-28T06:49:03.828Z,976.35
2022-11-28T06:50:02.859Z,976.29
2022-11-28T06:51:03.837Z,976.40
2022-11-28T06:52:03.885Z,976.29
2022-11-28T06:53:04.029Z,976.18
2022-11-28T06:54:03.693Z,976.04
2022-11-28T06:55:03.778Z,976.29
2022-11-28T06:56:03.764Z,976.18
2022-11-28T06:57:03.635Z,976.07
2022-11-28T06:58:03.790Z,976.21
2022-11-28T06:59:03.693Z,976.15
2022-11-28T07:00:03.924Z,976.07
2022-11-28T07:01:03.880Z,976.21
2022-11-28T07:02:08.189Z,976.23
2022-11-28T07:03:03.608Z,976.18
2022-11-28T07:04:03.607Z,976.21
2022-11-28T07:05:03.545Z,976.10
2022-11-28T07:06:03.633Z,976.12
2022-11-28T07:07:03.577Z,976.18
2022-11-28T07:08:03.854Z,975.95
2022-11-28T07:09:03.786Z,976.09
2022-11-28T07:10:03.682Z,975.98
2022-11-28T07:11:03.685Z,975.81
2022-11-28T07:12:03.596Z,975.98
2022-11-28T07:13:06.015Z,976.01
2022-11-28T07:14:03.473Z,975.95
2022-11-28T07:15:03.541Z,975.95
2022-11-28T07:16:03.463Z,975.75
2022-11-28T07:17:03.704Z,975.89
2022-11-28T07:18:03.675Z,975.98
2022-11-28T07:19:03.676Z,975.81
2022-11-28T07:20:03.625Z,975.92
2022-11-28T07:21:03.629Z,975.92
2022-11-28T07:22:03.656Z,975.89
2022-11-28T07:23:03.616Z,975.92
2022-11-28T07:24:03.488Z,975.89
2022-11-28T07:25:03.557Z,976.00
2022-11-28T07:26:03.709Z,975.89
2022-11-28T07:27:03.697Z,975.94
2022-11-28T07:28:03.624Z,975.97
2022-11-28T07:29:03.500Z,976.00
2022-11-28T07:30:03.486Z,975.83
2022-11-28T07:31:03.434Z,975.94
2022-11-28T07:32:03.653Z,975.86
2022-11-28T07:33:03.530Z,975.91
2022-11-28T07:34:03.714Z,975.83
2022-11-28T07:35:03.494Z,975.89
2022-11-28T07:36:03.449Z,975.83
2022-11-28T07:37:03.458Z,975.77
2022-11-28T07:38:03.387Z,975.77
2022-11-28T07:39:03.440Z,975.83
2022-11-28T07:40:03.373Z,975.88
2022-11-28T07:41:03.382Z,975.77
2022-11-28T07:42:03.414Z,975.91
2022-11-28T07:43:03.366Z,975.88
2022-11-28T07:44:03.371Z,975.94
2022-11-28T07:45:03.330Z,975.85
2022-11-28T07:46:03.278Z,975.82
2022-11-28T07:47:03.402Z,975.88
2022-11-28T07:48:03.220Z,975.79
2022-11-28T07:49:03.325Z,975.82
2022-11-28T07:50:03.264Z,975.99
2022-11-28T07:51:03.160Z,975.88
2022-11-28T07:52:03.255Z,975.93
2022-11-28T07:53:07.568Z,975.96
2022-11-28T07:54:03.096Z,975.96
2022-11-28T07:55:03.069Z,976.07
2022-11-28T07:56:02.998Z,976.04
2022-11-28T07:57:13.854Z,975.99
2022-11-28T07:58:02.961Z,975.93
2022-11-28T07:59:03.835Z,975.90
2022-11-28T08:00:02.919Z,975.90
2022-11-28T08:01:02.915Z,975.93
2022-11-28T08:02:03.116Z,976.15
2022-11-28T08:03:03.731Z,976.18
2022-11-28T08:04:03.925Z,976.18
2022-11-28T08:05:03.859Z,976.18
2022-11-28T08:06:03.737Z,976.24
2022-11-28T08:07:03.842Z,976.13
2022-11-28T08:08:03.919Z,976.27
2022-11-28T08:09:03.670Z,976.18
2022-11-28T08:10:03.770Z,976.18
2022-11-28T08:11:03.621Z,976.15
2022-11-28T08:12:03.585Z,976.24
2022-11-28T08:13:03.461Z,976.29
2022-11-28T08:14:03.373Z,976.21
2022-11-28T08:15:03.433Z,976.32
2022-11-28T08:16:03.281Z,976.29
2022-11-28T08:17:03.425Z,976.37
2022-11-28T08:18:03.348Z,976.35
2022-11-28T08:19:03.436Z,976.46
2022-11-28T08:20:03.401Z,976.57
2022-11-28T08:21:03.415Z,976.48
2022-11-28T08:22:03.427Z,976.43
2022-11-28T08:23:03.241Z,976.51
2022-11-28T08:24:03.283Z,976.40
2022-11-28T08:25:03.204Z,976.57
2022-11-28T08:26:03.180Z,976.43
2022-11-28T08:27:03.270Z,976.46
2022-11-28T08:28:03.298Z,976.46
2022-11-28T08:29:03.231Z,976.49
2022-11-28T08:30:03.161Z,976.38
2022-11-28T08:31:03.301Z,976.35
2022-11-28T08:32:03.087Z,976.35
2022-11-28T08:33:03.121Z,976.46
2022-11-28T08:34:03.017Z,976.43
2022-11-28T08:35:02.944Z,976.29
2022-11-28T08:36:03.848Z,976.35
2022-11-28T08:37:03.960Z,976.18
2022-11-28T08:38:03.826Z,976.35
2022-11-28T08:39:25.019Z,976.43
2022-11-28T08:40:03.670Z,976.29
2022-11-28T08:41:03.601Z,976.24
2022-11-28T08:42:03.610Z,976.12
2022-11-28T08:43:03.563Z,976.15
2022-11-28T08:44:03.437Z,976.07
2022-11-28T08:45:03.537Z,976.07
2022-11-28T08:46:03.565Z,975.96
2022-11-28T08:47:03.387Z,976.21
2022-11-28T08:48:03.337Z,976.24
2022-11-28T08:49:05.066Z,976.18
2022-11-28T08:50:03.409Z,976.24
2022-11-28T08:51:03.360Z,976.41
2022-11-28T08:52:03.266Z,976.29
2022-11-28T08:53:08.191Z,976.24
2022-11-28T08:54:03.134Z,976.32
2022-11-28T08:55:02.981Z,976.35
2022-11-28T08:56:03.008Z,976.18
2022-11-28T08:57:02.996Z,976.07
2022-11-28T08:58:02.996Z,976.32
2022-11-28T08:59:02.871Z,976.21
2022-11-28T09:00:03.847Z,976.46
2022-11-28T09:01:03.428Z,976.29
2022-11-28T09:02:03.518Z,976.35
2022-11-28T09:03:03.367Z,976.38
2022-11-28T09:04:03.575Z,976.37
2022-11-28T09:05:03.408Z,976.49
2022-11-28T09:06:03.362Z,976.40
2022-11-28T09:07:03.289Z,976.35
2022-11-28T09:08:03.518Z,976.23
2022-11-28T09:09:03.204Z,976.32
2022-11-28T09:10:03.212Z,976.23
2022-11-28T09:11:03.212Z,976.12
2022-11-28T09:12:03.179Z,976.26
2022-11-28T09:13:03.124Z,976.23
2022-11-28T09:14:03.111Z,976.17
2022-11-28T09:15:03.057Z,976.23
2022-11-28T09:16:03.026Z,976.20
2022-11-28T09:17:03.081Z,976.34
2022-11-28T09:18:02.953Z,976.37
2022-11-28T09:19:02.955Z,976.23
2022-11-28T09:20:02.907Z,976.17
2022-11-28T09:21:03.864Z,976.17
2022-11-28T09:22:03.804Z,976.20
2022-11-28T09:23:03.819Z,976.25
2022-11-28T09:24:03.674Z,976.25
2022-11-28T09:25:03.664Z,976.31
2022-11-28T09:26:03.715Z,976.31
2022-11-28T09:27:03.554Z,976.33
2022-11-28T09:28:03.620Z,976.14
2022-11-28T09:29:03.475Z,976.33
2022-11-28T09:30:03.453Z,976.25
2022-11-28T09:31:03.344Z,976.27
2022-11-28T09:32:03.341Z,976.16
2022-11-28T09:33:03.248Z,976.41
2022-11-28T09:34:03.291Z,976.24
2022-11-28T09:35:03.182Z,976.16
2022-11-28T09:36:03.304Z,976.27
2022-11-28T09:37:05.449Z,976.24
2022-11-28T09:38:03.312Z,976.33
2022-11-28T09:39:03.230Z,976.24
2022-11-28T09:40:14.194Z,976.13
2022-11-28T09:41:03.153Z,976.13
2022-11-28T09:42:03.189Z,976.21
2022-11-28T09:43:03.236Z,976.18
2022-11-28T09:44:03.169Z,976.32
2022-11-28T09:45:03.261Z,976.32
2022-11-28T09:46:03.461Z,976.15
2022-11-28T09:47:03.398Z,976.26
2022-11-28T09:48:03.390Z,976.21
2022-11-28T09:49:03.353Z,976.12
2022-11-28T09:50:03.414Z,976.18
2022-11-28T09:51:03.495Z,976.23
2022-11-28T09:52:03.677Z,976.37
2022-11-28T09:53:03.859Z,976.21
2022-11-28T09:54:03.556Z,976.32
2022-11-28T09:55:03.432Z,976.34
2022-11-28T09:56:03.515Z,976.20
2022-11-28T09:57:03.508Z,976.34
2022-11-28T09:58:03.675Z,976.34
2022-11-28T09:59:03.673Z,976.37
2022-11-28T10:00:03.615Z,976.37
2022-11-28T10:01:03.616Z,976.48
2022-11-28T10:02:03.581Z,976.60
2022-11-28T10:03:03.614Z,976.48
2022-11-28T10:04:03.883Z,976.43
2022-11-28T10:05:03.642Z,976.32
2022-11-28T10:06:03.497Z,976.40
2022-11-28T10:07:03.353Z,976.43
2022-11-28T10:08:03.657Z,976.37
2022-11-28T10:09:03.343Z,976.43
2022-11-28T10:10:03.456Z,976.43
2022-11-28T10:11:03.359Z,976.32
2022-11-28T10:12:03.354Z,976.21
2022-11-28T10:13:03.325Z,976.29
2022-11-28T10:14:08.756Z,976.29
2022-11-28T10:15:03.180Z,976.37
2022-11-28T10:16:03.214Z,976.29
2022-11-28T10:17:03.574Z,976.26
2022-11-28T10:18:03.400Z,976.38
2022-11-28T10:19:03.491Z,976.38
2022-11-28T10:20:03.439Z,976.49
2022-11-28T10:21:03.316Z,976.43
2022-11-28T10:22:03.204Z,976.49
2022-11-28T10:23:03.300Z,976.37
2022-11-28T10:24:03.163Z,976.37
2022-11-28T10:25:03.092Z,976.40
2022-11-28T10:26:03.145Z,976.46
2022-11-28T10:27:03.187Z,976.37
2022-11-28T10:28:03.273Z,976.29
2022-11-28T10:29:03.427Z,976.43
2022-11-28T10:30:03.265Z,976.51
2022-11-28T10:31:03.410Z,976.26
2022-11-28T10:32:03.325Z,976.32
2022-11-28T10:33:03.278Z,976.32
2022-11-28T10:34:03.284Z,976.34
2022-11-28T10:35:03.304Z,976.23
2022-11-28T10:36:03.236Z,976.40
2022-11-28T10:37:03.208Z,976.37
2022-11-28T10:38:03.307Z,976.32
2022-11-28T10:39:11.147Z,976.34
2022-11-28T10:40:03.153Z,976.40
2022-11-28T10:41:03.272Z,976.40
2022-11-28T10:42:03.304Z,976.46
2022-11-28T10:43:03.402Z,976.23
2022-11-28T10:44:03.326Z,976.34
2022-11-28T10:45:03.301Z,976.23
2022-11-28T10:46:03.594Z,976.34
2022-11-28T10:47:03.604Z,976.26
2022-11-28T10:48:39.843Z,976.26
2022-11-28T10:49:03.386Z,976.34
2022-11-28T10:50:03.374Z,976.37
2022-11-28T10:51:03.310Z,976.37
2022-11-28T10:52:03.294Z,976.40
2022-11-28T10:53:03.239Z,976.26
2022-11-28T10:54:03.334Z,976.40
2022-11-28T10:55:03.198Z,976.37
2022-11-28T10:56:11.353Z,976.34
2022-11-28T10:57:03.130Z,976.26
2022-11-28T10:58:03.264Z,976.26
2022-11-28T10:59:03.223Z,976.32
2022-11-28T11:00:03.132Z,976.37
2022-11-28T11:01:03.357Z,976.31
2022-11-28T11:02:03.368Z,976.34
2022-11-28T11:03:03.258Z,976.37
2022-11-28T11:04:03.417Z,976.46
2022-11-28T11:05:03.541Z,976.32
2022-11-28T11:06:03.218Z,976.29
2022-11-28T11:07:13.805Z,976.34
2022-11-28T11:08:03.333Z,976.32
2022-11-28T11:09:03.423Z,976.26
2022-11-28T11:10:03.351Z,976.32
2022-11-28T11:11:03.331Z,976.29
2022-11-28T11:12:03.443Z,976.26
2022-11-28T11:13:03.399Z,976.12
2022-11-28T11:14:03.432Z,976.12
2022-11-28T11:15:03.371Z,976.18
2022-11-28T11:16:03.431Z,976.15
2022-11-28T11:17:03.314Z,976.20
2022-11-28T11:18:03.295Z,976.01
2022-11-28T11:19:03.297Z,976.09
2022-11-28T11:20:03.247Z,976.29
2022-11-28T11:21:03.354Z,976.15
2022-11-28T11:22:03.205Z,976.17
2022-11-28T11:23:03.227Z,976.09
2022-11-28T11:24:03.355Z,976.06
2022-11-28T11:25:03.346Z,976.03
2022-11-28T11:26:03.353Z,975.95
2022-11-28T11:27:03.459Z,976.06
2022-11-28T11:28:03.365Z,976.03
2022-11-28T11:29:03.440Z,976.23
2022-11-28T11:30:03.444Z,975.95
2022-11-28T11:31:03.645Z,976.06
2022-11-28T11:32:03.518Z,976.06
2022-11-28T11:33:03.425Z,976.00
2022-11-28T11:34:03.524Z,975.89
2022-11-28T11:35:03.429Z,975.95
2022-11-28T11:36:03.462Z,976.06
2022-11-28T11:37:03.451Z,976.00
2022-11-28T11:38:03.510Z,976.03
2022-11-28T11:39:03.542Z,975.97
2022-11-28T11:40:03.434Z,975.98
2022-11-28T11:41:03.522Z,975.97
2022-11-28T11:42:03.478Z,976.09
2022-11-28T11:43:03.582Z,976.00
2022-11-28T11:44:03.829Z,976.08
2022-11-28T11:45:03.632Z,976.09
2022-11-28T11:46:03.681Z,976.11
2022-11-28T11:47:03.642Z,976.03
2022-11-28T11:48:03.717Z,976.08
2022-11-28T11:49:03.669Z,975.94
2022-11-28T11:50:03.549Z,976.08
2022-11-28T11:51:03.462Z,975.97
2022-11-28T11:52:03.499Z,976.00
2022-11-28T11:53:03.568Z,976.14
2022-11-28T11:54:03.547Z,976.05
2022-11-28T11:55:03.556Z,975.94
2022-11-28T11:56:03.427Z,976.05
2022-11-28T11:57:33.805Z,976.02
2022-11-28T11:58:06.308Z,976.05
2022-11-28T11:59:03.500Z,976.05
2022-11-28T12:00:03.362Z,976.02
2022-11-28T12:01:03.301Z,976.16
2022-11-28T12:02:03.222Z,976.05
2022-11-28T12:03:03.600Z,976.08
2022-11-28T12:04:44.226Z,976.08
2022-11-28T12:05:03.388Z,976.10
2022-11-28T12:06:15.338Z,976.08
2022-11-28T12:07:03.110Z,976.02
2022-11-28T12:08:03.330Z,975.99
2022-11-28T12:09:03.190Z,976.10
2022-11-28T12:10:05.207Z,976.05
2022-11-28T12:11:03.095Z,975.99
2022-11-28T12:12:03.123Z,975.99
2022-11-28T12:13:03.033Z,976.18
2022-11-28T12:14:03.231Z,975.99
2022-11-28T12:15:03.146Z,976.01
2022-11-28T12:16:03.235Z,975.93
2022-11-28T12:17:47.211Z,975.98
2022-11-28T12:18:03.738Z,976.09
2022-11-28T12:19:03.828Z,975.93
2022-11-28T12:20:03.732Z,975.95
2022-11-28T12:21:03.723Z,975.93
2022-11-28T12:22:03.666Z,975.95
2022-11-28T12:23:03.627Z,975.92
2022-11-28T12:24:03.706Z,975.95
2022-11-28T12:25:03.836Z,975.95
2022-11-28T12:26:03.777Z,975.92
2022-11-28T12:27:03.778Z,975.84
2022-11-28T12:28:03.738Z,975.86